createdAt,value
2018-10-19T19:28:02.288Z,33.13
2018-10-19T19:30:30.213Z,34.87
2018-10-19T19:33:03.417Z,32.57
2018-10-19T19:35:31.091Z,30.57
2018-10-19T19:37:58.772Z,31.50
2018-10-19T19:40:26.537Z,34.00
2018-10-19T19:42:55.990Z,32.40
2018-10-19T19:45:24.552Z,35.17
2018-10-19T19:47:57.759Z,33.27
2018-10-19T19:50:25.299Z,34.47
2018-10-19T19:52:53.011Z,34.30
2018-10-19T19:55:20.681Z,32.30
2018-10-19T19:57:48.370Z,33.93
2018-10-19T20:00:16.018Z,34.63
2018-10-19T20:02:43.768Z,35.30
2018-10-19T20:05:11.553Z,37.43
2018-10-19T20:07:39.352Z,38.50
2018-10-19T20:10:07.102Z,38.20
2018-10-19T20:12:35.110Z,40.40
2018-10-19T20:15:02.827Z,37.90
2018-10-19T20:17:30.454Z,36.00
2018-10-19T20:19:58.664Z,37.87
2018-10-19T20:22:26.350Z,38.40
2018-10-19T20:24:54.185Z,40.03
2018-10-19T20:27:21.969Z,57.00
2018-10-19T20:29:49.651Z,42.27
2018-10-19T20:32:17.413Z,37.90
2018-10-19T20:34:45.939Z,37.60
2018-10-19T20:37:14.120Z,38.70
2018-10-19T20:39:42.008Z,39.47
2018-10-19T20:42:09.799Z,37.40
2018-10-19T20:44:37.603Z,39.30
2018-10-19T20:47:05.273Z,38.57
2018-10-19T20:49:32.960Z,38.73
2018-10-19T20:52:00.599Z,39.10
2018-10-19T20:54:28.175Z,41.67
2018-10-19T20:56:55.867Z,40.83
2018-10-19T20:59:23.611Z,44.07
2018-10-19T21:01:51.479Z,39.53
2018-10-19T21:04:19.122Z,43.73
2018-10-19T21:06:46.872Z,42.20
2018-10-19T21:09:14.644Z,42.77
2018-10-19T21:11:42.255Z,40.03
2018-10-19T21:14:09.959Z,43.70
2018-10-19T21:16:37.575Z,42.67
2018-10-19T21:19:05.489Z,41.60
2018-10-19T21:21:33.143Z,43.27
2018-10-19T21:24:00.845Z,43.30
2018-10-19T21:26:28.532Z,42.80
2018-10-19T21:28:56.260Z,44.20
2018-10-19T21:31:23.847Z,42.33
2018-10-19T21:33:51.466Z,44.73
2018-10-19T21:36:19.191Z,44.53
2018-10-19T21:38:46.839Z,43.73
2018-10-19T21:41:14.646Z,43.17
2018-10-19T21:43:42.156Z,43.13
2018-10-19T21:46:09.785Z,43.47
2018-10-19T21:48:37.451Z,43.00
2018-10-19T21:51:05.254Z,44.73
2018-10-19T21:53:32.971Z,44.10
2018-10-19T21:56:00.631Z,44.43
2018-10-19T21:58:28.187Z,42.50
2018-10-19T22:00:55.764Z,44.07
2018-10-19T22:03:23.380Z,43.40
2018-10-19T22:05:50.974Z,45.17
2018-10-19T22:08:18.620Z,41.83
2018-10-19T22:10:46.163Z,42.87
2018-10-19T22:13:13.789Z,41.63
2018-10-19T22:15:41.430Z,42.00
2018-10-19T22:18:09.072Z,41.03
2018-10-19T22:20:36.663Z,41.37
2018-10-19T22:23:04.421Z,41.57
2018-10-19T22:25:31.948Z,41.97
2018-10-19T22:27:59.615Z,39.10
2018-10-19T22:30:27.194Z,42.33
2018-10-19T22:32:54.806Z,41.03
2018-10-19T22:35:22.717Z,39.77
2018-10-19T22:37:50.635Z,38.67
2018-10-19T22:40:18.279Z,39.37
2018-10-19T22:42:45.908Z,39.93
2018-10-19T22:45:13.583Z,41.30
2018-10-19T22:47:41.175Z,38.30
2018-10-19T22:50:08.858Z,39.57
2018-10-19T22:52:36.483Z,42.33
2018-10-19T22:55:04.920Z,41.57
2018-10-19T22:57:32.590Z,41.93
2018-10-19T23:00:00.180Z,39.97
2018-10-19T23:02:27.762Z,39.23
2018-10-19T23:04:55.376Z,40.70
2018-10-19T23:07:22.986Z,40.93
2018-10-19T23:09:50.599Z,44.07
2018-10-19T23:12:18.204Z,41.40
2018-10-19T23:14:45.835Z,40.53
2018-10-19T23:17:13.570Z,39.53
2018-10-19T23:19:41.090Z,41.10
2018-10-19T23:22:08.653Z,41.00
2018-10-19T23:24:36.267Z,40.60
2018-10-19T23:27:04.255Z,40.23
2018-10-19T23:29:31.940Z,39.60
2018-10-19T23:31:59.616Z,42.73
2018-10-19T23:34:27.266Z,37.43
2018-10-19T23:36:54.982Z,39.00
2018-10-19T23:39:22.615Z,39.80
2018-10-19T23:41:50.238Z,41.20
2018-10-19T23:44:17.906Z,37.57
2018-10-19T23:46:45.507Z,39.83
2018-10-19T23:49:13.169Z,41.47
2018-10-19T23:51:40.770Z,38.27
2018-10-19T23:54:08.442Z,39.53
2018-10-19T23:56:36.063Z,41.60
2018-10-19T23:59:03.989Z,37.23
